Time;durP1;ratioP1;P1;durP2;ratioP2;P2;SDS_P1;SDS_P2;PMS_P1;PMS_P2;Temp;Humidity;BMP_temperature;BMP_pressure;BME280_temperature;BME280_humidity;BME280_pressure;Samples;Min_cycle;Max_cycle;Signal;HPM_P1;HPM_P2
2023/08/27 00:00:25;;;;;;;;;2.75;2.00;;;;;18.14;56.93;100486.59;5068685;27;45310;-74
2023/08/27 00:02:50;;;;;;;;;2.50;1.00;;;;;18.13;56.96;100484.06;5068738;28;53238;-72
2023/08/27 00:05:16;;;;;;;;;1.50;1.00;;;;;18.09;56.77;100485.19;5086887;27;45510;-73
2023/08/27 00:07:41;;;;;;;;;1.00;1.00;;;;;18.02;57.20;100480.31;5068307;28;65989;-74
2023/08/27 00:10:07;;;;;;;;;1.00;1.00;;;;;17.99;57.32;100477.00;5051296;28;47044;-73
2023/08/27 00:12:33;;;;;;;;;1.00;1.00;;;;;17.97;57.21;100478.88;5073956;27;45329;-74
2023/08/27 00:14:58;;;;;;;;;1.50;1.00;;;;;17.95;57.26;100480.75;5069264;28;73185;-73
2023/08/27 00:17:24;;;;;;;;;2.00;2.00;;;;;17.93;57.31;100469.41;5073578;27;74238;-73
2023/08/27 00:19:49;;;;;;;;;2.00;1.00;;;;;17.93;57.33;100472.06;5071543;27;45442;-72
2023/08/27 00:22:15;;;;;;;;;1.75;1.00;;;;;17.92;57.50;100470.34;5073849;27;59618;-73
2023/08/27 00:24:40;;;;;;;;;1.00;1.00;;;;;17.91;57.50;100476.59;5076236;27;45865;-73
2023/08/27 00:27:05;;;;;;;;;1.75;1.00;;;;;17.91;57.39;100476.59;5093135;27;48285;-74
2023/08/27 00:29:31;;;;;;;;;2.00;1.00;;;;;17.87;57.52;100481.25;5082356;27;45444;-74
2023/08/27 00:31:57;;;;;;;;;1.00;1.00;;;;;17.88;58.33;100482.94;5076836;27;45374;-74
2023/08/27 00:34:30;;;;;;;;;0.25;0.00;;;;;17.87;57.68;100478.59;5077149;27;65291;-74
2023/08/27 00:36:56;;;;;;;;;0.75;0.75;;;;;17.88;57.82;100482.09;5079935;27;45539;-72
2023/08/27 00:39:21;;;;;;;;;1.25;1.25;;;;;17.87;58.38;100472.47;5068743;28;73228;-73
2023/08/27 00:41:46;;;;;;;;;0.75;0.75;;;;;17.83;57.64;100472.59;5070065;27;67772;-73
2023/08/27 00:44:11;;;;;;;;;0.00;0.00;;;;;17.81;58.13;100466.56;5061164;28;65979;-73
2023/08/27 00:46:37;;;;;;;;;0.75;0.00;;;;;17.81;57.84;100471.84;5075416;27;46463;-73
2023/08/27 00:49:02;;;;;;;;;0.00;0.00;;;;;17.79;57.47;100475.53;5071830;27;69074;-73
2023/08/27 00:51:28;;;;;;;;;1.00;0.50;;;;;17.75;57.60;100464.28;5069609;27;45545;-73
2023/08/27 00:53:54;;;;;;;;;0.75;0.00;;;;;17.74;58.00;100473.19;5074332;27;45557;-74
2023/08/27 00:56:19;;;;;;;;;1.00;0.75;;;;;17.73;58.15;100476.75;5076799;27;48846;-72
2023/08/27 00:58:45;;;;;;;;;1.25;0.00;;;;;17.74;59.87;100482.91;5077254;27;65601;-72
2023/08/27 01:01:11;;;;;;;;;1.00;0.00;;;;;17.74;58.47;100480.25;5061547;28;45806;-73
2023/08/27 01:03:36;;;;;;;;;0.75;0.75;;;;;17.73;59.03;100478.56;5076064;27;66564;-73
2023/08/27 01:06:01;;;;;;;;;1.75;0.00;;;;;17.71;59.13;100470.72;5052975;28;72070;-73
2023/08/27 01:08:44;;;;;;;;;2.50;1.00;;;;;17.74;59.23;100480.25;5064565;27;45296;-73
2023/08/27 01:11:55;;;;;;;;;1.50;1.00;;;;;17.76;59.28;100473.06;5080361;27;45507;-73
2023/08/27 01:14:22;;;;;;;;;0.50;0.50;;;;;17.77;59.18;100472.97;5076979;27;45396;-73
2023/08/27 01:16:48;;;;;;;;;4.00;1.00;;;;;17.77;59.13;100475.63;5069903;27;46377;-73
2023/08/27 01:19:15;;;;;;;;;2.00;1.00;;;;;17.78;59.20;100471.19;5061918;28;45519;-73
2023/08/27 01:21:44;;;;;;;;;0.50;0.00;;;;;17.75;59.04;100471.38;5075784;27;45293;-73
2023/08/27 01:24:10;;;;;;;;;1.00;1.00;;;;;17.77;59.28;100483.56;5073547;27;45572;-73
2023/08/27 01:26:42;;;;;;;;;1.00;1.00;;;;;17.78;59.13;100471.19;5073017;27;45576;-73
2023/08/27 01:29:36;;;;;;;;;1.00;1.00;;;;;17.78;59.40;100474.69;5074945;27;46373;-73
2023/08/27 01:32:12;;;;;;;;;1.50;0.25;;;;;17.76;59.29;100471.28;5074999;27;45401;-73
2023/08/27 01:34:39;;;;;;;;;2.00;0.50;;;;;17.75;59.30;100466.94;5076935;27;45270;-73
2023/08/27 01:37:05;;;;;;;;;1.00;1.00;;;;;17.74;59.88;100467.00;5077406;27;45296;-73
2023/08/27 01:39:31;;;;;;;;;1.00;1.00;;;;;17.72;59.45;100459.16;5072967;28;45798;-73
2023/08/27 01:41:56;;;;;;;;;1.25;1.25;;;;;17.73;59.47;100457.38;5076288;28;54103;-73
2023/08/27 01:44:21;;;;;;;;;0.00;0.00;;;;;17.71;59.35;100454.84;5062093;28;45701;-73
2023/08/27 01:46:47;;;;;;;;;0.50;0.25;;;;;17.70;59.09;100458.41;5063250;28;45376;-73
2023/08/27 01:49:12;;;;;;;;;0.00;0.00;;;;;17.70;59.26;100468.16;5071229;27;73327;-73
2023/08/27 01:51:37;;;;;;;;;0.00;0.00;;;;;17.67;59.44;100455.09;5051073;28;45594;-73
2023/08/27 01:54:03;;;;;;;;;0.00;0.00;;;;;17.69;59.41;100463.78;5074981;27;45278;-73
2023/08/27 01:56:28;;;;;;;;;1.00;0.00;;;;;17.65;59.14;100458.72;5081740;27;46317;-73
2023/08/27 01:58:54;;;;;;;;;0.00;0.00;;;;;17.66;59.34;100459.56;5077153;27;66641;-73
2023/08/27 02:01:19;;;;;;;;;0.75;0.75;;;;;17.65;59.43;100456.06;5073271;27;61172;-73
2023/08/27 02:03:44;;;;;;;;;0.75;0.75;;;;;17.61;59.27;100462.47;5071512;27;45414;-73
2023/08/27 02:06:10;;;;;;;;;0.75;0.75;;;;;17.64;59.43;100461.44;5078868;27;66748;-72
2023/08/27 02:08:35;;;;;;;;;0.50;0.00;;;;;17.62;59.60;100461.53;5071894;28;64404;-72
2023/08/27 02:11:01;;;;;;;;;1.00;1.00;;;;;17.61;59.63;100469.56;5064148;28;45348;-72
2023/08/27 02:13:26;;;;;;;;;1.50;0.50;;;;;17.57;60.00;100466.25;5090194;27;45515;-72
2023/08/27 02:15:51;;;;;;;;;1.50;0.00;;;;;17.59;59.96;100460.88;5078902;27;61415;-73
2023/08/27 02:18:17;;;;;;;;;0.25;0.25;;;;;17.54;59.73;100458.50;5069509;28;45603;-72
2023/08/27 02:20:43;;;;;;;;;0.75;0.75;;;;;17.52;60.50;100456.91;5077553;27;66389;-72
2023/08/27 02:23:09;;;;;;;;;0.25;0.25;;;;;17.50;60.16;100464.94;5071273;27;45485;-73
2023/08/27 02:25:34;;;;;;;;;1.00;1.00;;;;;17.51;59.99;100468.41;5058793;28;47234;-73
2023/08/27 02:28:00;;;;;;;;;4.00;1.00;;;;;17.47;60.17;100462.47;5061714;28;62785;-74
2023/08/27 02:30:25;;;;;;;;;1.00;1.00;;;;;17.44;60.21;100468.81;5063580;28;61537;-75
2023/08/27 02:32:50;;;;;;;;;0.00;0.00;;;;;17.42;60.91;100462.75;5064240;27;62463;-73
2023/08/27 02:35:15;;;;;;;;;4.00;0.25;;;;;17.39;60.64;100473.50;5072684;28;66527;-74
2023/08/27 02:37:41;;;;;;;;;1.75;0.50;;;;;17.38;60.38;100468.31;5062043;27;53581;-74
2023/08/27 02:40:07;;;;;;;;;0.75;0.75;;;;;17.38;60.42;100457.72;5084594;27;45442;-74
2023/08/27 02:42:32;;;;;;;;;3.25;1.00;;;;;17.35;60.38;100461.41;5091083;27;46044;-73
2023/08/27 02:44:57;;;;;;;;;1.25;1.00;;;;;17.34;61.02;100461.50;5074136;28;70408;-73
2023/08/27 02:47:23;;;;;;;;;1.00;1.00;;;;;17.30;60.93;100459.97;5073709;28;62467;-73
2023/08/27 02:49:49;;;;;;;;;1.00;1.00;;;;;17.23;60.43;100454.22;5076886;27;45544;-73
2023/08/27 02:52:15;;;;;;;;;0.25;0.25;;;;;17.23;61.00;100462.16;5073050;28;45465;-73
2023/08/27 02:54:41;;;;;;;;;1.25;0.50;;;;;17.18;60.81;100465.06;5076068;27;45695;-73
2023/08/27 02:57:06;;;;;;;;;0.50;0.50;;;;;17.12;61.39;100461.91;5078396;27;64416;-73
2023/08/27 02:59:31;;;;;;;;;1.50;0.00;;;;;17.10;61.01;100467.28;5076301;28;45269;-73
2023/08/27 03:01:57;;;;;;;;;0.00;0.00;;;;;17.11;61.35;100470.81;5076666;27;45808;-73
2023/08/27 03:04:22;;;;;;;;;1.25;0.00;;;;;17.08;61.67;100466.53;5078046;28;69417;-72
2023/08/27 03:06:47;;;;;;;;;1.00;1.00;;;;;17.07;61.63;100467.47;5062827;27;70170;-73
2023/08/27 03:09:13;;;;;;;;;0.00;0.00;;;;;17.04;61.23;100471.13;5063298;27;65130;-73
2023/08/27 03:11:38;;;;;;;;;0.75;0.25;;;;;16.98;61.81;100470.63;5068690;28;67967;-73
2023/08/27 03:14:03;;;;;;;;;1.50;0.50;;;;;16.95;61.79;100468.19;5075472;27;69776;-73
2023/08/27 03:16:29;;;;;;;;;2.25;0.75;;;;;16.92;61.29;100465.72;5074729;28;59152;-73
2023/08/27 03:18:54;;;;;;;;;2.25;0.50;;;;;16.87;61.40;100463.34;5074457;27;45469;-73
2023/08/27 03:21:21;;;;;;;;;0.50;0.00;;;;;16.83;61.57;100467.94;5073274;27;65779;-73
2023/08/27 03:23:46;;;;;;;;;3.00;0.00;;;;;16.78;61.97;100469.13;5075337;27;46223;-73
2023/08/27 03:26:12;;;;;;;;;1.75;0.75;;;;;16.77;61.51;100481.50;5075101;28;45452;-72
2023/08/27 03:28:37;;;;;;;;;0.50;0.50;;;;;16.72;61.68;100470.34;5076438;27;45694;-73
2023/08/27 03:31:03;;;;;;;;;1.50;1.00;;;;;16.60;62.06;100471.03;5078370;27;61376;-73
2023/08/27 03:33:31;;;;;;;;;2.00;0.00;;;;;16.59;62.23;100479.88;5077856;27;46389;-73
2023/08/27 03:35:57;;;;;;;;;1.75;0.00;;;;;16.56;61.72;100480.91;5075277;28;45213;-73
2023/08/27 03:38:23;;;;;;;;;1.50;0.50;;;;;16.44;62.68;100471.88;5072228;27;46201;-73
2023/08/27 03:40:50;;;;;;;;;0.00;0.00;;;;;16.49;62.93;100484.84;5078738;27;45262;-73
2023/08/27 03:43:15;;;;;;;;;0.50;0.50;;;;;16.48;63.06;100488.41;5068603;28;45430;-73
2023/08/27 03:45:41;;;;;;;;;3.25;0.75;;;;;16.46;62.96;100479.72;5075894;27;45503;-73
2023/08/27 03:48:06;;;;;;;;;0.50;0.25;;;;;16.46;63.48;100485.84;5071564;28;63109;-73
2023/08/27 03:50:31;;;;;;;;;1.75;0.50;;;;;16.45;62.94;100488.56;5077745;27;61723;-74
2023/08/27 03:52:57;;;;;;;;;1.00;0.50;;;;;16.47;63.30;100489.34;5076713;28;57998;-74
2023/08/27 03:55:22;;;;;;;;;4.00;0.75;;;;;16.46;63.21;100480.56;5079131;28;66518;-74
2023/08/27 03:57:48;;;;;;;;;1.00;0.00;;;;;16.49;62.33;100487.47;5076125;27;45508;-74
2023/08/27 04:00:13;;;;;;;;;0.25;0.25;;;;;16.46;62.90;100491.13;5067099;27;45395;-74
2023/08/27 04:02:39;;;;;;;;;1.00;1.00;;;;;16.46;63.05;100499.03;5079619;27;46064;-74
2023/08/27 04:05:05;;;;;;;;;2.00;2.00;;;;;16.46;63.49;100499.03;5073658;27;45466;-74
2023/08/27 04:07:31;;;;;;;;;1.25;0.75;;;;;16.47;63.14;100498.13;5078688;27;45331;-74
2023/08/27 04:09:57;;;;;;;;;1.75;1.50;;;;;16.47;62.87;100500.75;5056418;28;45723;-74
2023/08/27 04:12:22;;;;;;;;;3.00;1.00;;;;;16.47;63.51;100503.41;5077441;27;47064;-74
2023/08/27 04:14:47;;;;;;;;;1.25;1.25;;;;;16.44;63.56;100506.22;5076913;28;69734;-74
2023/08/27 04:17:13;;;;;;;;;3.50;0.00;;;;;16.48;63.85;100513.06;5085397;27;47188;-74
2023/08/27 04:19:38;;;;;;;;;0.50;0.00;;;;;16.48;63.69;100504.25;5082023;27;68189;-73
2023/08/27 04:22:04;;;;;;;;;3.75;0.50;;;;;16.49;63.35;100501.53;5072454;27;46949;-73
2023/08/27 04:24:29;;;;;;;;;1.00;0.00;;;;;16.48;63.20;100501.59;5056628;28;45307;-72
2023/08/27 04:26:55;;;;;;;;;0.75;0.75;;;;;16.50;63.07;100508.53;5070166;27;45444;-72
2023/08/27 04:29:23;;;;;;;;;0.25;0.25;;;;;16.49;63.06;100509.44;5075789;27;45512;-73
2023/08/27 04:31:48;;;;;;;;;1.00;0.00;;;;;16.46;63.04;100516.69;5065834;27;45443;-74
2023/08/27 04:34:16;;;;;;;;;1.25;0.00;;;;;16.48;63.44;100522.75;5076383;27;71763;-74
2023/08/27 04:36:42;;;;;;;;;2.50;0.75;;;;;16.47;63.11;100518.41;5078800;28;45339;-73
2023/08/27 04:39:08;;;;;;;;;2.75;1.00;;;;;16.45;63.70;100509.69;5078529;27;65135;-73
2023/08/27 04:41:34;;;;;;;;;2.25;0.50;;;;;16.42;63.34;100510.72;5071874;28;46032;-73
2023/08/27 04:43:59;;;;;;;;;1.00;0.00;;;;;16.42;64.13;100508.09;5077160;27;46908;-74
2023/08/27 04:46:24;;;;;;;;;2.75;0.25;;;;;16.41;63.39;100511.66;5068639;27;50519;-74
2023/08/27 04:48:50;;;;;;;;;0.25;0.00;;;;;16.40;63.62;100522.34;5070695;27;60717;-74
2023/08/27 04:51:16;;;;;;;;;1.00;1.00;;;;;16.34;63.44;100520.84;5071667;27;71207;-74
2023/08/27 04:53:41;;;;;;;;;1.50;0.00;;;;;16.35;63.50;100527.00;5090261;27;45378;-73
2023/08/27 04:56:06;;;;;;;;;0.75;0.75;;;;;16.37;63.72;100530.41;5082711;27;45423;-73
2023/08/27 04:58:32;;;;;;;;;0.00;0.00;;;;;16.33;63.38;100524.44;5071829;27;70426;-73
2023/08/27 05:00:57;;;;;;;;;4.75;1.50;;;;;16.35;63.84;100530.50;5076135;27;51311;-73
2023/08/27 05:03:23;;;;;;;;;1.25;0.75;;;;;16.35;63.93;100527.84;5078141;28;62937;-74
2023/08/27 05:05:51;;;;;;;;;3.00;0.50;;;;;16.34;63.38;100523.50;5060890;28;45527;-75
2023/08/27 05:08:17;;;;;;;;;2.25;1.25;;;;;16.36;63.82;100531.34;5079786;27;45453;-74
2023/08/27 05:10:42;;;;;;;;;3.25;2.00;;;;;16.36;63.72;100532.22;5093727;27;47629;-74
2023/08/27 05:13:07;;;;;;;;;1.50;0.75;;;;;16.37;63.77;100531.25;5087404;27;66922;-75
2023/08/27 05:15:33;;;;;;;;;0.75;0.75;;;;;16.34;63.24;100534.06;5065429;27;61417;-74
2023/08/27 05:17:58;;;;;;;;;1.75;0.00;;;;;16.33;63.24;100532.38;5076859;27;54185;-74
2023/08/27 05:20:23;;;;;;;;;2.00;0.75;;;;;16.32;63.36;100534.16;5075199;27;70144;-74
2023/08/27 05:22:48;;;;;;;;;2.50;1.00;;;;;16.27;63.65;100530.03;5073786;27;63430;-74
2023/08/27 05:25:14;;;;;;;;;1.25;0.75;;;;;16.25;64.50;100537.19;5072457;28;45311;-74
2023/08/27 05:27:44;;;;;;;;;2.50;0.75;;;;;16.22;64.05;100543.50;5061694;28;50791;-73
2023/08/27 05:30:11;;;;;;;;;3.00;1.00;;;;;16.21;63.68;100540.94;5088539;27;47150;-74
2023/08/27 05:32:37;;;;;;;;;0.50;0.50;;;;;16.13;64.01;100538.72;5075109;28;45501;-74
2023/08/27 05:35:02;;;;;;;;;2.25;0.75;;;;;16.10;64.39;100541.53;5065776;28;55541;-73
2023/08/27 05:37:28;;;;;;;;;1.00;1.00;;;;;16.09;64.03;100538.00;5078196;28;45676;-73
2023/08/27 05:39:53;;;;;;;;;3.50;1.50;;;;;16.07;64.56;100531.13;5070789;28;45275;-73
2023/08/27 05:42:18;;;;;;;;;2.00;2.00;;;;;16.11;64.83;100533.53;5065418;27;45487;-74
2023/08/27 05:44:44;;;;;;;;;4.00;1.25;;;;;16.16;64.76;100535.06;5078203;27;51530;-74
2023/08/27 05:47:09;;;;;;;;;2.75;1.00;;;;;16.20;64.87;100548.03;5060287;28;45514;-74
2023/08/27 05:49:35;;;;;;;;;2.50;1.00;;;;;16.20;65.38;100537.47;5096057;27;47091;-74
2023/08/27 05:52:00;;;;;;;;;3.00;0.75;;;;;16.24;65.03;100540.78;5076189;28;58632;-74
2023/08/27 05:54:25;;;;;;;;;1.25;0.25;;;;;16.27;64.47;100543.25;5072293;27;66216;-73
2023/08/27 05:56:50;;;;;;;;;3.25;0.75;;;;;16.31;64.33;100544.81;5062786;27;64114;-73
2023/08/27 05:59:16;;;;;;;;;2.50;0.50;;;;;16.35;64.66;100553.41;5070723;28;71542;-74
2023/08/27 06:01:42;;;;;;;;;2.75;0.75;;;;;16.39;64.40;100557.59;5072046;27;69576;-74
2023/08/27 06:04:08;;;;;;;;;1.50;1.50;;;;;16.42;64.24;100553.00;5079557;27;45387;-74
2023/08/27 06:06:33;;;;;;;;;1.00;1.00;;;;;16.47;64.38;100548.31;5075948;27;45909;-73
2023/08/27 06:08:59;;;;;;;;;0.00;0.00;;;;;16.52;64.12;100553.34;5072765;27;45727;-75
2023/08/27 06:11:24;;;;;;;;;2.75;0.75;;;;;16.56;63.44;100546.13;5086319;27;72199;-74
2023/08/27 06:13:49;;;;;;;;;1.00;1.00;;;;;16.59;63.64;100552.09;5075446;27;63311;-74
2023/08/27 06:16:15;;;;;;;;;1.25;0.50;;;;;16.63;63.60;100563.34;5069345;28;68508;-74
2023/08/27 06:18:40;;;;;;;;;0.00;0.00;;;;;16.63;63.26;100558.06;5070567;27;64418;-74
2023/08/27 06:21:06;;;;;;;;;3.25;1.75;;;;;16.68;63.80;100563.94;5064967;27;45697;-74
2023/08/27 06:23:32;;;;;;;;;2.25;1.50;;;;;16.71;63.50;100561.09;5075914;27;45342;-75
2023/08/27 06:26:04;;;;;;;;;0.75;0.75;;;;;16.74;63.66;100555.66;5078082;28;73536;-73
2023/08/27 06:28:30;;;;;;;;;1.75;0.50;;;;;16.77;63.42;100563.41;5067914;27;45413;-73
2023/08/27 06:30:55;;;;;;;;;1.00;1.00;;;;;16.78;63.08;100573.03;5064979;28;45366;-74
2023/08/27 06:33:21;;;;;;;;;3.00;1.25;;;;;16.81;62.99;100561.47;5092934;27;67523;-74
2023/08/27 06:35:46;;;;;;;;;0.75;0.75;;;;;16.86;63.38;100567.38;5077009;28;56541;-74
2023/08/27 06:38:12;;;;;;;;;1.25;1.25;;;;;16.91;63.43;100567.97;5075047;28;46189;-74
2023/08/27 06:40:37;;;;;;;;;2.75;1.00;;;;;16.94;63.01;100575.69;5078115;27;47181;-74
2023/08/27 06:43:03;;;;;;;;;1.75;0.75;;;;;16.94;62.73;100572.22;5073614;28;62150;-75
2023/08/27 06:45:28;;;;;;;;;3.25;0.50;;;;;16.91;63.11;100570.63;5068603;27;54636;-73
2023/08/27 06:47:55;;;;;;;;;1.00;0.75;;;;;16.91;62.84;100573.25;5074342;28;45382;-73
2023/08/27 06:50:20;;;;;;;;;4.00;1.00;;;;;16.94;63.09;100572.22;5058231;27;45380;-74
2023/08/27 06:52:46;;;;;;;;;1.00;0.25;;;;;16.96;62.99;100579.09;5086532;27;45330;-73
2023/08/27 06:55:12;;;;;;;;;1.75;1.75;;;;;17.02;62.91;100578.78;5075132;28;45337;-75
2023/08/27 06:57:38;;;;;;;;;3.00;1.25;;;;;17.05;63.03;100573.31;5068216;28;60558;-73
2023/08/27 07:00:07;;;;;;;;;1.00;1.00;;;;;17.08;62.80;100580.22;5077030;27;45472;-74
2023/08/27 07:02:32;;;;;;;;;5.50;3.25;;;;;17.12;62.38;100591.47;5067653;28;45504;-74
2023/08/27 07:04:57;;;;;;;;;3.50;2.00;;;;;17.15;62.28;100586.00;5045957;28;45785;-74
2023/08/27 07:07:25;;;;;;;;;0.75;0.75;;;;;17.15;62.33;100594.78;5077420;27;75779;-75
2023/08/27 07:09:50;;;;;;;;;4.00;2.00;;;;;17.19;61.98;100587.53;5062566;27;45228;-75
2023/08/27 07:12:15;;;;;;;;;2.00;0.75;;;;;17.20;62.03;100587.47;5068090;27;45443;-75
2023/08/27 07:14:41;;;;;;;;;2.50;1.25;;;;;17.25;61.80;100595.13;5066439;27;45619;-74
2023/08/27 07:17:07;;;;;;;;;3.25;0.75;;;;;17.29;62.09;100595.81;5081388;27;45322;-73
2023/08/27 07:19:32;;;;;;;;;3.25;3.00;;;;;17.30;61.77;100595.72;5072438;27;45466;-74
2023/08/27 07:21:58;;;;;;;;;1.75;0.75;;;;;17.35;61.65;100601.59;5070639;28;58960;-74
2023/08/27 07:24:23;;;;;;;;;2.00;1.00;;;;;17.34;61.81;100597.25;5076318;27;45276;-74
2023/08/27 07:26:49;;;;;;;;;1.50;1.00;;;;;17.36;61.60;100603.28;5072999;27;48242;-73
2023/08/27 07:29:15;;;;;;;;;0.50;0.50;;;;;17.35;61.66;100598.09;5070382;27;45527;-74
2023/08/27 07:31:40;;;;;;;;;1.50;1.50;;;;;17.40;61.66;100603.97;5069316;28;65431;-74
2023/08/27 07:34:06;;;;;;;;;3.00;1.50;;;;;17.44;61.76;100601.06;5067484;27;59837;-74
2023/08/27 07:36:31;;;;;;;;;2.00;1.75;;;;;17.52;61.27;100602.41;5072971;28;55210;-74
2023/08/27 07:38:57;;;;;;;;;1.00;1.00;;;;;17.60;61.48;100610.75;5064524;28;46052;-74
2023/08/27 07:41:23;;;;;;;;;0.75;0.75;;;;;17.64;61.10;100599.06;5076817;28;45388;-74
2023/08/27 07:43:48;;;;;;;;;2.00;1.25;;;;;17.67;61.03;100601.53;5074218;27;45259;-73
2023/08/27 07:46:14;;;;;;;;;4.25;1.50;;;;;17.76;60.84;100606.28;5073089;27;45172;-73
2023/08/27 07:48:39;;;;;;;;;3.00;2.00;;;;;17.80;60.89;100606.94;5059785;28;45409;-75
2023/08/27 07:51:04;;;;;;;;;2.50;0.50;;;;;17.88;60.77;100612.66;5068240;28;52526;-73
2023/08/27 07:53:30;;;;;;;;;3.75;2.00;;;;;17.88;60.43;100607.34;5068256;28;67500;-71
2023/08/27 07:55:55;;;;;;;;;7.50;1.75;;;;;17.95;60.52;100602.56;5076746;28;45215;-73
2023/08/27 07:58:21;;;;;;;;;1.25;1.00;;;;;17.99;60.43;100601.44;5068569;28;45682;-71
2023/08/27 08:00:46;;;;;;;;;2.00;2.00;;;;;18.08;60.07;100605.31;5076737;28;45388;-71
2023/08/27 08:03:12;;;;;;;;;3.00;2.00;;;;;18.10;60.05;100606.94;5072173;28;45451;-71
2023/08/27 08:05:37;;;;;;;;;1.50;1.50;;;;;18.14;60.15;100615.53;5077576;28;71366;-73
2023/08/27 08:08:03;;;;;;;;;0.75;0.75;;;;;18.16;59.61;100609.19;5077566;28;45405;-73
2023/08/27 08:10:29;;;;;;;;;2.50;0.75;;;;;18.21;59.75;100614.22;5077665;28;45771;-72
2023/08/27 08:12:54;;;;;;;;;1.00;1.00;;;;;18.20;59.49;100609.84;5077350;28;45434;-72
2023/08/27 08:15:19;;;;;;;;;0.75;0.75;;;;;18.18;59.63;100607.34;5071740;28;71499;-71
2023/08/27 08:17:45;;;;;;;;;1.50;1.00;;;;;18.16;59.24;100601.25;5069174;28;45524;-71
2023/08/27 08:20:11;;;;;;;;;1.75;0.50;;;;;18.13;59.55;100604.09;5067542;28;45501;-71
2023/08/27 08:22:37;;;;;;;;;2.00;1.00;;;;;18.12;59.06;100602.38;5069211;28;45240;-76
2023/08/27 08:25:03;;;;;;;;;4.25;1.00;;;;;18.13;59.14;100593.50;5071103;27;45442;-71
2023/08/27 08:27:28;;;;;;;;;2.50;2.00;;;;;18.12;59.22;100597.09;5071169;27;45469;-79
2023/08/27 08:29:53;;;;;;;;;2.25;0.75;;;;;18.18;59.26;100593.22;5073011;27;64216;-72
2023/08/27 08:32:19;;;;;;;;;2.00;2.00;;;;;18.26;59.17;100590.97;5062858;28;57533;-73
2023/08/27 08:34:44;;;;;;;;;2.00;1.00;;;;;18.32;58.99;100589.72;5066260;27;45275;-75
2023/08/27 08:37:10;;;;;;;;;2.75;1.00;;;;;18.35;58.52;100589.53;5078930;28;45773;-73
2023/08/27 08:39:36;;;;;;;;;2.75;1.00;;;;;18.33;58.48;100594.94;5063272;28;45200;-74
2023/08/27 08:42:01;;;;;;;;;2.50;1.00;;;;;18.34;58.34;100601.94;5080019;28;45478;-71
2023/08/27 08:44:43;;;;;;;;;1.00;1.00;;;;;18.30;58.40;100597.75;5073646;27;45596;-73
2023/08/27 08:47:09;;;;;;;;;1.75;0.75;;;;;18.28;58.24;100601.47;5050479;28;45231;-74
2023/08/27 08:49:38;;;;;;;;;1.00;1.00;;;;;18.40;58.61;100600.72;5058261;28;45387;-74
2023/08/27 08:52:08;;;;;;;;;3.00;3.00;;;;;18.58;57.96;100609.31;5075708;28;45563;-74
2023/08/27 08:54:36;;;;;;;;;2.00;1.00;;;;;18.62;57.60;100599.34;5065694;27;46627;-74
2023/08/27 08:57:01;;;;;;;;;1.00;1.00;;;;;18.75;57.10;100601.16;5060218;28;46292;-74
2023/08/27 08:59:28;;;;;;;;;1.25;1.00;;;;;18.87;56.77;100598.69;5056403;28;45402;-73
2023/08/27 09:01:54;;;;;;;;;3.75;1.00;;;;;19.04;56.76;100600.25;5068339;28;45628;-74
2023/08/27 09:04:21;;;;;;;;;0.00;0.00;;;;;19.12;56.29;100590.84;5066142;27;46883;-75
2023/08/27 09:06:47;;;;;;;;;3.00;1.75;;;;;19.25;56.34;100593.56;5068467;28;47663;-74
2023/08/27 09:09:13;;;;;;;;;3.00;0.00;;;;;19.35;55.64;100597.31;5068292;28;45523;-74
2023/08/27 09:11:39;;;;;;;;;0.75;0.75;;;;;19.39;55.91;100591.78;5055017;28;46491;-75
2023/08/27 09:14:04;;;;;;;;;1.75;1.00;;;;;19.43;55.80;100595.94;5060131;28;48016;-74
2023/08/27 09:16:30;;;;;;;;;2.50;1.25;;;;;19.47;55.74;100611.53;5055134;28;45288;-74
2023/08/27 09:18:56;;;;;;;;;0.75;0.75;;;;;19.47;55.31;100600.94;5079529;28;45450;-74
2023/08/27 09:21:21;;;;;;;;;1.00;1.00;;;;;19.55;55.17;100600.44;5043193;28;45629;-74
2023/08/27 09:23:47;;;;;;;;;4.00;0.25;;;;;19.73;54.99;100593.91;5070536;28;74194;-71
2023/08/27 09:26:14;;;;;;;;;1.00;1.00;;;;;19.99;54.71;100609.88;5089905;27;58496;-74
2023/08/27 09:28:40;;;;;;;;;1.75;0.50;;;;;20.14;54.44;100610.63;5074802;28;45461;-73
2023/08/27 09:31:09;;;;;;;;;2.00;1.00;;;;;20.18;54.91;100612.09;5059406;28;45292;-73
2023/08/27 09:33:40;;;;;;;;;0.50;0.50;;;;;20.20;53.92;100619.97;5059866;28;46620;-72
2023/08/27 09:36:06;;;;;;;;;1.75;1.25;;;;;20.16;52.61;100615.84;5070282;27;45865;-73
2023/08/27 09:38:32;;;;;;;;;2.75;2.00;;;;;20.21;53.73;100619.03;5059768;28;45561;-74
2023/08/27 09:41:13;;;;;;;;;4.00;3.00;;;;;20.17;53.53;100622.84;5056088;28;45455;-71
2023/08/27 09:43:39;;;;;;;;;1.00;1.00;;;;;20.17;53.20;100622.84;5063263;28;45572;-72
2023/08/27 09:46:09;;;;;;;;;2.25;1.25;;;;;20.18;52.89;100630.72;5065496;27;45470;-73
2023/08/27 09:48:34;;;;;;;;;2.00;1.00;;;;;20.18;53.27;100621.91;5063873;28;45429;-75
2023/08/27 09:51:05;;;;;;;;;0.50;0.00;;;;;20.22;53.01;100636.66;5072332;28;45314;-75
2023/08/27 09:53:31;;;;;;;;;2.25;1.00;;;;;20.25;52.77;100624.00;5071613;28;45981;-72
2023/08/27 09:55:56;;;;;;;;;1.00;1.00;;;;;20.34;52.08;100622.53;5055589;28;45783;-72
2023/08/27 09:58:28;;;;;;;;;2.25;1.00;;;;;20.46;52.19;100620.81;5058698;28;45307;-73
2023/08/27 10:01:00;;;;;;;;;3.25;1.75;;;;;20.62;51.68;100613.47;5059800;28;45498;-74
2023/08/27 10:03:28;;;;;;;;;1.75;1.75;;;;;20.73;51.05;100614.53;5071196;28;46968;-73
2023/08/27 10:05:54;;;;;;;;;2.00;2.00;;;;;20.81;51.26;100607.69;5070701;27;45541;-79
2023/08/27 10:08:19;;;;;;;;;2.00;2.00;;;;;20.84;50.87;100610.16;5077225;28;45446;-77
2023/08/27 10:10:45;;;;;;;;;1.00;1.00;;;;;20.92;51.12;100616.72;5070345;28;46276;-74
2023/08/27 10:13:15;;;;;;;;;2.50;1.00;;;;;20.97;51.24;100614.56;5070210;28;46045;-76
2023/08/27 10:15:41;;;;;;;;;2.00;1.00;;;;;21.01;50.89;100619.53;5076459;27;45318;-77
2023/08/27 10:18:12;;;;;;;;;2.75;1.00;;;;;20.95;50.44;100624.50;5075294;28;45449;-76
2023/08/27 10:20:40;;;;;;;;;2.00;2.00;;;;;20.89;50.20;100623.09;5072632;28;45254;-79
2023/08/27 10:23:05;;;;;;;;;3.00;1.50;;;;;20.88;49.97;100629.41;5067125;27;45574;-75
2023/08/27 10:25:32;;;;;;;;;1.00;1.00;;;;;20.73;49.40;100623.34;5078378;27;58771;-76
2023/08/27 10:27:58;;;;;;;;;2.00;1.00;;;;;20.68;50.40;100633.47;5071671;27;45499;-74
2023/08/27 10:30:24;;;;;;;;;1.00;1.00;;;;;20.65;50.11;100631.88;5080788;27;61781;-74
2023/08/27 10:32:50;;;;;;;;;0.75;0.75;;;;;20.72;49.39;100637.63;5078005;27;45462;-75
2023/08/27 10:35:16;;;;;;;;;2.00;1.00;;;;;20.81;50.04;100636.13;5070409;27;45372;-74
2023/08/27 10:37:44;;;;;;;;;1.00;1.00;;;;;20.89;49.71;100632.91;5072280;27;45366;-80
2023/08/27 10:40:12;;;;;;;;;1.25;1.25;;;;;21.09;50.09;100634.97;5069997;27;45279;-72
2023/08/27 10:42:37;;;;;;;;;7.50;6.75;;;;;21.20;49.47;100640.34;5072486;27;45501;-72
2023/08/27 10:45:15;;;;;;;;;4.25;2.75;;;;;21.27;49.16;100646.09;5085961;27;45417;-76
2023/08/27 10:47:44;;;;;;;;;1.50;1.50;;;;;21.25;48.57;100634.69;5074304;27;47077;-75
2023/08/27 10:50:21;;;;;;;;;2.25;2.00;;;;;21.17;49.31;100637.91;5073966;27;45502;-76
2023/08/27 10:52:51;;;;;;;;;3.75;2.50;;;;;21.18;49.07;100650.25;5064223;27;46283;-77
2023/08/27 10:55:20;;;;;;;;;4.00;3.25;;;;;21.15;48.90;100642.50;5073785;27;45440;-76
2023/08/27 10:57:46;;;;;;;;;4.75;3.00;;;;;21.22;48.72;100632.25;5079230;27;45455;-76
2023/08/27 11:00:12;;;;;;;;;2.50;2.50;;;;;21.46;47.58;100626.97;5060797;28;45575;-75
2023/08/27 11:02:57;;;;;;;;;1.25;1.00;;;;;21.77;47.79;100629.97;5084275;27;47162;-77
2023/08/27 11:05:29;;;;;;;;;1.00;1.00;;;;;21.96;45.19;100616.94;5087182;27;45460;-71
2023/08/27 11:08:01;;;;;;;;;2.00;0.50;;;;;22.12;45.98;100619.28;5076460;27;45379;-73
2023/08/27 11:10:31;;;;;;;;;1.25;1.00;;;;;22.27;45.52;100624.41;5072876;27;45490;-73
2023/08/27 11:12:56;;;;;;;;;1.00;1.00;;;;;22.37;45.93;100615.56;5070239;27;46100;-78
2023/08/27 11:15:28;;;;;;;;;1.00;1.00;;;;;22.49;45.63;100619.09;5066951;27;71400;-78
2023/08/27 11:17:54;;;;;;;;;1.00;1.00;;;;;22.53;45.11;100615.22;5067904;28;45601;-70
2023/08/27 11:20:24;;;;;;;;;2.00;1.00;;;;;22.49;45.89;100615.59;5067321;28;45632;-73